createdAt,value
2019-05-14T00:00:11.840Z,7.90
2019-05-14T00:01:18.300Z,7.90
2019-05-14T00:02:25.164Z,7.80
2019-05-14T00:03:31.604Z,7.80
2019-05-14T00:04:38.193Z,7.80
2019-05-14T00:05:44.683Z,7.80
2019-05-14T00:06:52.021Z,7.80
2019-05-14T00:07:58.456Z,7.80
2019-05-14T00:09:06.415Z,7.70
2019-05-14T00:10:13.012Z,7.70
2019-05-14T00:11:21.787Z,7.80
2019-05-14T00:12:27.924Z,7.80
2019-05-14T00:13:35.005Z,7.80
2019-05-14T00:14:43.824Z,7.80
2019-05-14T00:15:49.314Z,7.80
2019-05-14T00:16:55.622Z,7.70
2019-05-14T00:18:02.560Z,7.80
2019-05-14T00:19:11.015Z,7.70
2019-05-14T00:20:17.729Z,7.80
2019-05-14T00:21:24.024Z,7.80
2019-05-14T00:22:31.990Z,7.80
2019-05-14T00:23:38.484Z,7.80
2019-05-14T00:24:45.284Z,7.80
2019-05-14T00:25:52.262Z,7.80
2019-05-14T00:27:02.089Z,7.80
2019-05-14T00:28:08.466Z,7.80
2019-05-14T00:29:15.404Z,7.80
2019-05-14T00:30:22.042Z,7.70
2019-05-14T00:31:31.739Z,7.70
2019-05-14T00:32:38.372Z,7.80
2019-05-14T00:33:45.124Z,7.80
2019-05-14T00:34:51.781Z,7.80
2019-05-14T00:35:58.754Z,7.80
2019-05-14T00:37:05.176Z,7.80
2019-05-14T00:38:12.002Z,7.80
2019-05-14T00:39:18.426Z,7.80
2019-05-14T00:40:25.369Z,7.70
2019-05-14T00:41:31.708Z,7.80
2019-05-14T00:42:41.099Z,7.80
2019-05-14T00:43:46.587Z,7.80
2019-05-14T00:44:57.825Z,7.80
2019-05-14T00:46:01.789Z,7.80
2019-05-14T00:47:11.128Z,7.70
2019-05-14T00:48:16.952Z,7.70
2019-05-14T00:49:23.817Z,7.70
2019-05-14T00:50:31.703Z,7.70
2019-05-14T00:51:41.263Z,7.70
2019-05-14T00:52:48.162Z,7.70
2019-05-14T00:53:55.311Z,7.70
2019-05-14T00:55:02.784Z,7.70
2019-05-14T00:56:11.015Z,7.70
2019-05-14T00:57:17.518Z,7.70
2019-05-14T00:58:24.446Z,7.50
2019-05-14T00:59:32.206Z,7.50
2019-05-14T01:00:39.025Z,7.60
2019-05-14T01:01:45.378Z,7.60
2019-05-14T01:02:52.413Z,7.50
2019-05-14T01:04:01.103Z,7.60
2019-05-14T01:05:08.256Z,7.60
2019-05-14T01:06:14.602Z,7.60
2019-05-14T01:07:21.488Z,7.70
2019-05-14T01:08:27.732Z,7.60
2019-05-14T01:09:34.714Z,7.70
2019-05-14T01:10:41.760Z,7.70
2019-05-14T01:11:51.121Z,7.60
2019-05-14T01:12:56.962Z,7.70
2019-05-14T01:14:03.860Z,7.70
2019-05-14T01:15:14.105Z,7.70
2019-05-14T01:16:19.493Z,7.70
2019-05-14T01:17:25.715Z,7.70
2019-05-14T01:18:32.547Z,7.70
2019-05-14T01:19:39.256Z,7.70
2019-05-14T01:20:46.388Z,7.70
2019-05-14T01:21:52.315Z,7.70
2019-05-14T01:22:59.306Z,7.70
2019-05-14T01:24:05.804Z,7.70
2019-05-14T01:25:12.719Z,7.70
2019-05-14T01:26:19.059Z,7.70
2019-05-14T01:27:26.355Z,7.70
2019-05-14T01:28:32.626Z,7.60
2019-05-14T01:29:42.176Z,7.70
2019-05-14T01:30:47.456Z,7.70
2019-05-14T01:31:54.498Z,7.60
2019-05-14T01:33:01.729Z,7.60
2019-05-14T01:34:11.026Z,7.60
2019-05-14T01:35:16.706Z,7.60
2019-05-14T01:36:23.684Z,7.50
2019-05-14T01:37:31.141Z,7.50
2019-05-14T01:38:38.090Z,7.50
2019-05-14T01:39:44.332Z,7.50
2019-05-14T01:40:52.438Z,7.50
2019-05-14T01:41:59.217Z,7.50
2019-05-14T01:43:06.140Z,7.50
2019-05-14T01:44:12.335Z,7.60
2019-05-14T01:45:25.210Z,7.60
2019-05-14T01:46:26.948Z,7.60
2019-05-14T01:47:33.871Z,7.50
2019-05-14T01:48:41.754Z,7.60
2019-05-14T01:49:48.688Z,7.60
2019-05-14T01:50:55.070Z,7.50
2019-05-14T01:52:01.962Z,7.50
2019-05-14T01:53:08.334Z,7.50
2019-05-14T01:54:15.376Z,7.50
2019-05-14T01:55:22.048Z,7.40
2019-05-14T01:56:28.663Z,7.50
2019-05-14T01:57:34.975Z,7.50
2019-05-14T01:58:41.927Z,7.50
2019-05-14T01:59:51.454Z,7.50
2019-05-14T02:00:57.712Z,7.50
2019-05-14T02:02:04.372Z,7.50
2019-05-14T02:03:12.120Z,7.50
2019-05-14T02:04:18.565Z,7.50
2019-05-14T02:05:25.372Z,7.50
2019-05-14T02:06:31.929Z,7.40
2019-05-14T02:07:38.495Z,7.40
2019-05-14T02:08:44.715Z,7.50
2019-05-14T02:09:51.955Z,7.40
2019-05-14T02:10:58.405Z,7.40
2019-05-14T02:12:05.481Z,7.40
2019-05-14T02:13:12.279Z,7.40
2019-05-14T02:14:19.297Z,7.40
2019-05-14T02:15:37.086Z,7.50
2019-05-14T02:16:34.136Z,7.50
2019-05-14T02:17:41.401Z,7.40
2019-05-14T02:18:48.270Z,7.40
2019-05-14T02:19:54.656Z,7.40
2019-05-14T02:21:01.863Z,7.40
2019-05-14T02:22:11.228Z,7.40
2019-05-14T02:23:17.764Z,7.40
2019-05-14T02:24:24.127Z,7.40
2019-05-14T02:25:31.989Z,7.30
2019-05-14T02:26:38.597Z,7.40
2019-05-14T02:27:45.486Z,7.30
2019-05-14T02:28:51.919Z,7.30
2019-05-14T02:30:01.473Z,7.30
2019-05-14T02:31:09.433Z,7.30
2019-05-14T02:32:15.214Z,7.30
2019-05-14T02:33:21.782Z,7.30
2019-05-14T02:34:29.914Z,7.30
2019-05-14T02:35:39.521Z,7.30
2019-05-14T02:36:44.944Z,7.30
2019-05-14T02:37:51.146Z,7.30
2019-05-14T02:39:00.504Z,7.30
2019-05-14T02:40:09.623Z,7.20
2019-05-14T02:41:15.210Z,7.30
2019-05-14T02:42:21.357Z,7.30
2019-05-14T02:43:29.271Z,7.30
2019-05-14T02:44:36.073Z,7.30
2019-05-14T02:46:00.724Z,7.30
2019-05-14T02:46:51.475Z,7.30
2019-05-14T02:48:00.431Z,7.20
2019-05-14T02:49:06.322Z,7.20
2019-05-14T02:50:13.372Z,7.20
2019-05-14T02:51:20.219Z,7.30
2019-05-14T02:52:29.199Z,7.20
2019-05-14T02:53:39.110Z,7.30
2019-05-14T02:54:45.028Z,7.20
2019-05-14T02:55:51.335Z,7.30
2019-05-14T02:56:59.857Z,7.30
2019-05-14T02:58:06.226Z,7.20
2019-05-14T02:59:13.248Z,7.30
2019-05-14T03:00:19.743Z,7.30
2019-05-14T03:01:30.200Z,7.30
2019-05-14T03:02:40.012Z,7.20
2019-05-14T03:03:45.148Z,7.20
2019-05-14T03:04:51.540Z,7.20
2019-05-14T03:06:00.233Z,7.20
2019-05-14T03:07:10.320Z,7.20
2019-05-14T03:08:15.478Z,7.30
2019-05-14T03:09:21.823Z,7.30
2019-05-14T03:10:30.142Z,7.20
2019-05-14T03:11:40.330Z,7.20
2019-05-14T03:12:49.779Z,7.20
2019-05-14T03:13:54.640Z,7.20
2019-05-14T03:15:01.559Z,7.20
2019-05-14T03:16:24.885Z,7.30
2019-05-14T03:17:19.591Z,7.30
2019-05-14T03:18:25.396Z,7.30
2019-05-14T03:19:32.431Z,7.30
2019-05-14T03:20:39.220Z,7.30
2019-05-14T03:21:49.844Z,7.30
2019-05-14T03:23:05.226Z,7.30
2019-05-14T03:24:09.062Z,7.30
2019-05-14T03:25:14.017Z,7.30
2019-05-14T03:26:22.256Z,7.30
2019-05-14T03:27:30.340Z,7.20
2019-05-14T03:28:39.845Z,7.20
2019-05-14T03:29:44.976Z,7.30
2019-05-14T03:30:53.382Z,7.20
2019-05-14T03:32:03.195Z,7.20
2019-05-14T03:33:13.267Z,7.10
2019-05-14T03:34:21.535Z,7.20
2019-05-14T03:35:35.491Z,7.20
2019-05-14T03:36:35.184Z,7.20
2019-05-14T03:37:41.878Z,7.20
2019-05-14T03:38:50.195Z,7.20
2019-05-14T03:39:59.444Z,7.20
2019-05-14T03:41:05.088Z,7.20
2019-05-14T03:42:11.722Z,7.30
2019-05-14T03:43:19.806Z,7.20
2019-05-14T03:44:29.210Z,7.30
2019-05-14T03:45:35.035Z,7.30
2019-05-14T03:46:51.193Z,7.30
2019-05-14T03:47:50.783Z,7.20
2019-05-14T03:49:00.129Z,7.20
2019-05-14T03:50:09.851Z,7.20
2019-05-14T03:51:21.837Z,7.20
2019-05-14T03:52:29.518Z,7.30
2019-05-14T03:53:52.152Z,7.20
2019-05-14T03:54:49.742Z,7.20
2019-05-14T03:55:59.695Z,7.20
2019-05-14T03:57:29.156Z,7.20
2019-05-14T03:58:39.318Z,7.20
2019-05-14T03:59:50.261Z,7.20
2019-05-14T04:01:03.844Z,7.20
2019-05-14T04:02:11.151Z,7.20
2019-05-14T04:03:19.856Z,7.20
2019-05-14T04:04:29.674Z,7.30
2019-05-14T04:05:35.083Z,7.30
2019-05-14T04:06:43.917Z,7.30
2019-05-14T04:07:51.326Z,7.30
2019-05-14T04:09:00.530Z,7.30
2019-05-14T04:10:10.359Z,7.30
2019-05-14T04:11:20.151Z,7.30
2019-05-14T04:12:29.498Z,7.30
2019-05-14T04:13:40.558Z,7.30
2019-05-14T04:14:50.203Z,7.20
2019-05-14T04:15:59.992Z,7.30
2019-05-14T04:17:11.138Z,7.20
2019-05-14T04:18:15.450Z,7.30
2019-05-14T04:19:25.264Z,7.30
2019-05-14T04:20:34.048Z,7.40
2019-05-14T04:21:41.712Z,7.30
2019-05-14T04:22:50.327Z,7.30
2019-05-14T04:23:59.644Z,7.30
2019-05-14T04:25:11.047Z,7.30
2019-05-14T04:26:30.540Z,7.40
2019-05-14T04:27:42.009Z,7.30
2019-05-14T04:28:50.046Z,7.40
2019-05-14T04:29:58.985Z,7.40
2019-05-14T04:31:09.789Z,7.40
2019-05-14T04:32:19.713Z,7.40
2019-05-14T04:33:30.422Z,7.40
2019-05-14T04:34:39.467Z,7.40
2019-05-14T04:35:44.779Z,7.30
2019-05-14T04:36:51.429Z,7.30
2019-05-14T04:37:58.947Z,7.40
2019-05-14T04:39:09.486Z,7.40
2019-05-14T04:40:18.727Z,7.40
2019-05-14T04:41:24.226Z,7.50
2019-05-14T04:42:31.553Z,7.40
2019-05-14T04:43:40.032Z,7.40
2019-05-14T04:44:50.296Z,7.40
2019-05-14T04:45:59.062Z,7.40
2019-05-14T04:47:22.926Z,7.50
2019-05-14T04:48:27.457Z,7.50
2019-05-14T04:49:21.265Z,7.50
2019-05-14T04:50:29.704Z,7.50
2019-05-14T04:51:39.748Z,7.60
2019-05-14T04:52:49.074Z,7.50
2019-05-14T04:53:59.872Z,7.50
2019-05-14T04:55:09.872Z,7.50
2019-05-14T04:56:19.606Z,7.40
2019-05-14T04:57:29.946Z,7.50
2019-05-14T04:58:35.754Z,7.50
2019-05-14T04:59:42.381Z,7.50
2019-05-14T05:00:49.945Z,7.50
2019-05-14T05:01:59.728Z,7.50
2019-05-14T05:03:08.219Z,7.50
2019-05-14T05:04:12.478Z,7.50
2019-05-14T05:05:19.789Z,7.50
2019-05-14T05:06:28.837Z,7.50
2019-05-14T05:07:34.483Z,7.50
2019-05-14T05:08:40.949Z,7.50
2019-05-14T05:09:50.288Z,7.40
2019-05-14T05:10:55.659Z,7.40
2019-05-14T05:12:02.604Z,7.50
2019-05-14T05:13:09.287Z,7.50
2019-05-14T05:14:18.953Z,7.50
2019-05-14T05:15:24.307Z,7.60
2019-05-14T05:16:31.167Z,7.50
2019-05-14T05:17:46.749Z,7.50
2019-05-14T05:18:48.730Z,7.40
2019-05-14T05:19:53.533Z,7.50
2019-05-14T05:21:00.359Z,7.40
2019-05-14T05:22:08.006Z,7.40
2019-05-14T05:23:14.930Z,7.50
2019-05-14T05:24:23.259Z,7.50
2019-05-14T05:25:30.346Z,7.60
2019-05-14T05:26:39.040Z,7.60
2019-05-14T05:27:45.179Z,7.60
2019-05-14T05:29:02.570Z,7.60
2019-05-14T05:29:59.953Z,7.60
2019-05-14T05:31:09.044Z,7.60
2019-05-14T05:32:15.166Z,7.70
2019-05-14T05:33:21.518Z,7.60
2019-05-14T05:34:28.417Z,7.70
2019-05-14T05:35:34.652Z,7.70
2019-05-14T05:36:41.591Z,7.70
2019-05-14T05:37:49.015Z,7.70
2019-05-14T05:38:56.237Z,7.70
2019-05-14T05:40:02.550Z,7.70
2019-05-14T05:41:09.283Z,7.70
2019-05-14T05:42:15.704Z,7.80
2019-05-14T05:43:22.850Z,7.80
2019-05-14T05:44:29.403Z,7.80
2019-05-14T05:45:38.070Z,7.80
2019-05-14T05:46:44.308Z,7.80
2019-05-14T05:47:57.412Z,7.80
2019-05-14T05:48:59.376Z,7.80
2019-05-14T05:50:08.728Z,7.80
2019-05-14T05:51:15.097Z,7.80
2019-05-14T05:52:22.022Z,7.80
2019-05-14T05:53:28.856Z,7.80
2019-05-14T05:54:38.224Z,7.90
2019-05-14T05:55:43.896Z,7.80
2019-05-14T05:56:50.664Z,7.80
2019-05-14T05:57:58.728Z,7.90
2019-05-14T05:59:05.569Z,7.80
2019-05-14T06:00:12.404Z,7.90
2019-05-14T06:01:19.783Z,7.80
2019-05-14T06:02:26.165Z,7.70
2019-05-14T06:03:32.879Z,7.80
2019-05-14T06:04:39.604Z,7.80
2019-05-14T06:05:49.092Z,7.80
2019-05-14T06:06:54.612Z,7.80
2019-05-14T06:08:01.518Z,7.80
2019-05-14T06:09:08.993Z,7.90
2019-05-14T06:10:18.645Z,7.80
2019-05-14T06:11:24.994Z,7.90
2019-05-14T06:12:31.745Z,7.90
2019-05-14T06:13:39.195Z,8.00
2019-05-14T06:14:48.524Z,8.00
2019-05-14T06:15:54.566Z,8.00
2019-05-14T06:17:01.799Z,8.00
2019-05-14T06:18:15.104Z,8.00
2019-05-14T06:19:18.576Z,8.00
2019-05-14T06:20:24.736Z,8.00
2019-05-14T06:21:31.507Z,8.10
2019-05-14T06:22:38.456Z,8.00
2019-05-14T06:23:45.674Z,8.00
2019-05-14T06:24:51.615Z,8.10
2019-05-14T06:25:59.778Z,8.10
2019-05-14T06:27:06.149Z,8.10
2019-05-14T06:28:12.904Z,8.10
2019-05-14T06:29:19.225Z,8.10
2019-05-14T06:30:39.608Z,8.00
2019-05-14T06:31:45.589Z,8.00
2019-05-14T06:32:52.500Z,8.00
2019-05-14T06:33:59.154Z,8.00
2019-05-14T06:35:08.589Z,8.00
2019-05-14T06:36:15.155Z,8.00
2019-05-14T06:37:21.998Z,8.00
2019-05-14T06:38:29.393Z,8.00
2019-05-14T06:39:38.847Z,8.00
2019-05-14T06:40:44.608Z,8.00
2019-05-14T06:41:51.309Z,8.00
2019-05-14T06:42:59.110Z,8.00
2019-05-14T06:44:06.446Z,8.00
2019-05-14T06:45:12.718Z,8.00
2019-05-14T06:46:19.734Z,8.10
2019-05-14T06:47:28.929Z,8.00
2019-05-14T06:48:35.526Z,8.00
2019-05-14T06:49:41.736Z,8.10
2019-05-14T06:50:50.432Z,8.10
2019-05-14T06:51:59.058Z,8.10
2019-05-14T06:53:05.408Z,8.20
2019-05-14T06:54:11.854Z,8.20
2019-05-14T06:55:18.743Z,8.20
2019-05-14T06:56:24.715Z,8.30
2019-05-14T06:57:31.599Z,8.30
2019-05-14T06:58:38.943Z,8.30
2019-05-14T06:59:48.226Z,8.30
2019-05-14T07:00:54.170Z,8.40
2019-05-14T07:02:01.043Z,8.50
2019-05-14T07:03:08.912Z,8.50
2019-05-14T07:04:18.060Z,8.40
2019-05-14T07:05:24.215Z,8.40
2019-05-14T07:06:31.190Z,8.50
2019-05-14T07:07:40.142Z,8.50
2019-05-14T07:08:48.130Z,8.50
2019-05-14T07:09:53.951Z,8.50
2019-05-14T07:11:00.936Z,8.50
2019-05-14T07:12:09.111Z,8.50
2019-05-14T07:13:15.759Z,8.60
2019-05-14T07:14:22.107Z,8.60
2019-05-14T07:15:29.145Z,8.60
2019-05-14T07:16:35.549Z,8.60
2019-05-14T07:17:42.277Z,8.70
2019-05-14T07:18:52.879Z,8.70
2019-05-14T07:19:58.300Z,8.70
2019-05-14T07:21:04.716Z,8.70
2019-05-14T07:22:11.458Z,8.70
2019-05-14T07:23:19.413Z,8.70
2019-05-14T07:24:28.214Z,8.70
2019-05-14T07:25:34.135Z,8.60
2019-05-14T07:26:41.204Z,8.70
2019-05-14T07:27:49.029Z,8.70
2019-05-14T07:28:56.110Z,8.70
2019-05-14T07:30:02.416Z,8.90
2019-05-14T07:31:09.746Z,8.90
2019-05-14T07:32:18.922Z,8.90
2019-05-14T07:33:25.450Z,9.00
2019-05-14T07:34:31.824Z,8.90
2019-05-14T07:35:38.678Z,8.90
2019-05-14T07:36:45.092Z,9.00
2019-05-14T07:37:52.980Z,9.00
2019-05-14T07:39:00.301Z,8.90
2019-05-14T07:40:08.508Z,9.00
2019-05-14T07:41:14.958Z,9.00
2019-05-14T07:42:21.920Z,9.00
2019-05-14T07:43:28.812Z,9.00
2019-05-14T07:44:36.119Z,9.00
2019-05-14T07:45:42.432Z,9.10
2019-05-14T07:46:49.258Z,9.10
2019-05-14T07:47:55.508Z,9.10
2019-05-14T07:49:08.076Z,9.10
2019-05-14T07:50:10.540Z,9.20
2019-05-14T07:51:18.970Z,9.20
2019-05-14T07:52:25.055Z,9.30
2019-05-14T07:53:38.821Z,9.30
2019-05-14T07:54:39.875Z,9.40
2019-05-14T07:55:49.046Z,9.40
2019-05-14T07:56:54.822Z,9.50
2019-05-14T07:58:01.889Z,9.40
2019-05-14T07:59:08.881Z,9.40
2019-05-14T08:00:18.989Z,9.40
2019-05-14T08:01:24.291Z,9.40
2019-05-14T08:02:31.146Z,9.40
2019-05-14T08:03:38.321Z,9.30
2019-05-14T08:04:45.409Z,9.30
2019-05-14T08:05:51.824Z,9.30
2019-05-14T08:06:58.757Z,9.20
2019-05-14T08:08:05.104Z,9.20
2019-05-14T08:09:12.246Z,9.20
2019-05-14T08:10:18.958Z,9.20
2019-05-14T08:11:27.941Z,9.30
2019-05-14T08:12:33.914Z,9.30
2019-05-14T08:13:42.617Z,9.20
2019-05-14T08:15:09.650Z,9.20
2019-05-14T08:15:58.393Z,9.20
2019-05-14T08:17:04.875Z,9.20
2019-05-14T08:18:11.717Z,9.30
2019-05-14T08:19:26.894Z,9.30
2019-05-14T08:20:28.536Z,9.30
2019-05-14T08:21:34.524Z,9.30
2019-05-14T08:22:41.608Z,9.30
2019-05-14T08:23:48.153Z,9.30
2019-05-14T08:24:55.126Z,9.20
2019-05-14T08:26:03.598Z,9.20
2019-05-14T08:27:10.007Z,9.10
2019-05-14T08:28:18.401Z,9.10
2019-05-14T08:29:25.102Z,9.10
2019-05-14T08:30:31.445Z,9.20
2019-05-14T08:31:39.493Z,9.10
2019-05-14T08:32:45.975Z,9.20
2019-05-14T08:33:52.815Z,9.30
2019-05-14T08:34:58.871Z,9.30
2019-05-14T08:36:05.776Z,9.40
2019-05-14T08:37:12.318Z,9.40
2019-05-14T08:38:19.186Z,9.50
2019-05-14T08:39:25.427Z,9.60
2019-05-14T08:40:32.327Z,9.60
2019-05-14T08:41:38.652Z,9.60
2019-05-14T08:42:48.832Z,9.70
2019-05-14T08:43:54.983Z,9.70
2019-05-14T08:45:04.886Z,9.60
2019-05-14T08:46:09.570Z,9.60
2019-05-14T08:47:18.383Z,9.60
2019-05-14T08:48:24.495Z,9.60
2019-05-14T08:49:42.533Z,9.60
2019-05-14T08:50:39.461Z,9.60
2019-05-14T08:51:49.533Z,9.60
2019-05-14T08:52:55.182Z,9.50
2019-05-14T08:54:01.904Z,9.60
2019-05-14T08:55:11.119Z,9.60
2019-05-14T08:56:18.899Z,9.60
2019-05-14T08:57:24.951Z,9.70
2019-05-14T08:58:31.863Z,9.80
2019-05-14T08:59:39.633Z,9.70
2019-05-14T09:00:48.243Z,9.70
2019-05-14T09:02:01.846Z,9.70
2019-05-14T09:03:03.401Z,9.70
2019-05-14T09:04:09.833Z,9.70
2019-05-14T09:05:18.306Z,9.70
2019-05-14T09:06:24.684Z,9.70
2019-05-14T09:07:31.321Z,9.60
2019-05-14T09:08:39.042Z,9.60
2019-05-14T09:09:48.708Z,9.60
2019-05-14T09:10:54.898Z,9.70
2019-05-14T09:12:01.867Z,9.60
2019-05-14T09:13:10.358Z,9.60
2019-05-14T09:14:18.834Z,9.50
2019-05-14T09:15:28.784Z,9.50
2019-05-14T09:16:46.007Z,9.50
2019-05-14T09:17:43.791Z,9.50
2019-05-14T09:18:52.596Z,9.40
2019-05-14T09:20:06.404Z,9.40
2019-05-14T09:21:08.655Z,9.30
2019-05-14T09:22:18.467Z,9.30
2019-05-14T09:23:24.846Z,9.30
2019-05-14T09:24:31.273Z,9.30
2019-05-14T09:25:47.431Z,9.30
2019-05-14T09:26:48.219Z,9.30
2019-05-14T09:27:54.824Z,9.30
2019-05-14T09:29:16.964Z,9.30
2019-05-14T09:30:10.142Z,9.30
2019-05-14T09:31:19.804Z,9.30
2019-05-14T09:32:25.785Z,9.20
2019-05-14T09:33:32.174Z,9.30
2019-05-14T09:34:39.455Z,9.30
2019-05-14T09:35:46.024Z,9.30
2019-05-14T09:36:52.939Z,9.20
2019-05-14T09:37:59.413Z,9.20
2019-05-14T09:39:11.822Z,9.30
2019-05-14T09:40:16.290Z,9.30
2019-05-14T09:41:23.238Z,9.30
2019-05-14T09:42:29.782Z,9.30
2019-05-14T09:43:38.984Z,9.40
2019-05-14T09:44:44.647Z,9.40
2019-05-14T09:45:51.868Z,9.40
2019-05-14T09:46:59.354Z,9.40
2019-05-14T09:48:08.711Z,9.50
2019-05-14T09:49:14.597Z,9.50
2019-05-14T09:50:23.614Z,9.50
2019-05-14T09:51:30.174Z,9.50
2019-05-14T09:52:39.168Z,9.50
2019-05-14T09:53:45.297Z,9.50
2019-05-14T09:54:53.982Z,9.60
2019-05-14T09:56:00.309Z,9.60
2019-05-14T09:57:08.295Z,9.50
2019-05-14T09:58:15.355Z,9.50
2019-05-14T09:59:22.051Z,9.60
2019-05-14T10:00:28.493Z,9.50
2019-05-14T10:01:35.294Z,9.60
2019-05-14T10:02:41.693Z,9.60
2019-05-14T10:03:49.523Z,9.70
2019-05-14T10:04:56.169Z,9.80
2019-05-14T10:06:03.320Z,9.90
2019-05-14T10:07:09.706Z,9.90
2019-05-14T10:08:19.141Z,9.90
2019-05-14T10:09:24.959Z,10.00
2019-05-14T10:10:31.869Z,10.10
2019-05-14T10:11:38.484Z,10.10
2019-05-14T10:12:54.131Z,10.10
2019-05-14T10:13:53.458Z,10.00
2019-05-14T10:15:00.495Z,10.00
2019-05-14T10:16:09.265Z,9.90
2019-05-14T10:17:15.236Z,9.90
2019-05-14T10:18:21.724Z,9.90
2019-05-14T10:19:29.593Z,9.90
2019-05-14T10:20:44.439Z,9.80
2019-05-14T10:21:44.938Z,9.70
2019-05-14T10:22:51.005Z,9.80
2019-05-14T10:23:58.446Z,9.70
2019-05-14T10:25:05.571Z,9.80
2019-05-14T10:26:12.450Z,9.80
2019-05-14T10:27:21.458Z,9.70
2019-05-14T10:28:28.973Z,9.80
2019-05-14T10:29:35.272Z,9.70
2019-05-14T10:30:42.222Z,9.70
2019-05-14T10:31:48.741Z,9.80
2019-05-14T10:32:55.455Z,9.90
2019-05-14T10:34:01.967Z,10.00
2019-05-14T10:35:09.663Z,10.00
2019-05-14T10:36:18.766Z,10.00
2019-05-14T10:37:24.618Z,10.00
2019-05-14T10:38:31.221Z,10.00
2019-05-14T10:39:39.108Z,10.00
2019-05-14T10:40:45.736Z,9.90
2019-05-14T10:41:52.658Z,9.90
2019-05-14T10:42:58.852Z,9.90
2019-05-14T10:44:05.626Z,9.90
2019-05-14T10:45:13.162Z,9.90
2019-05-14T10:46:20.194Z,9.90
2019-05-14T10:47:29.159Z,9.90
2019-05-14T10:48:39.359Z,9.80
2019-05-14T10:49:45.225Z,9.80
2019-05-14T10:51:01.979Z,9.80
2019-05-14T10:52:00.554Z,9.80
2019-05-14T10:53:09.036Z,9.90
2019-05-14T10:54:22.341Z,9.90
2019-05-14T10:55:23.696Z,10.00
2019-05-14T10:56:30.101Z,10.30
2019-05-14T10:57:38.046Z,10.50
2019-05-14T10:58:44.535Z,10.70
2019-05-14T10:59:51.485Z,10.70
2019-05-14T11:00:58.916Z,10.70
2019-05-14T11:02:06.054Z,10.80
2019-05-14T11:03:12.458Z,10.80
2019-05-14T11:04:19.467Z,10.90
2019-05-14T11:05:28.023Z,11.20
2019-05-14T11:06:33.760Z,11.40
2019-05-14T11:07:41.785Z,11.50
2019-05-14T11:08:49.243Z,11.60
2019-05-14T11:09:55.712Z,11.50
2019-05-14T11:11:04.365Z,11.30
2019-05-14T11:12:10.827Z,11.30
2019-05-14T11:13:18.947Z,11.10
2019-05-14T11:14:25.519Z,10.90
2019-05-14T11:15:32.570Z,10.80
2019-05-14T11:16:41.892Z,10.60
2019-05-14T11:17:48.737Z,10.40
2019-05-14T11:18:57.563Z,10.20
2019-05-14T11:20:04.107Z,10.20
2019-05-14T11:21:26.145Z,10.20
2019-05-14T11:22:20.628Z,10.10
2019-05-14T11:23:29.400Z,10.10
2019-05-14T11:24:35.437Z,10.10
2019-05-14T11:25:41.899Z,10.10
2019-05-14T11:26:49.005Z,10.00
2019-05-14T11:27:55.674Z,10.00
2019-05-14T11:29:02.498Z,9.90
2019-05-14T11:30:09.482Z,9.80
2019-05-14T11:31:18.761Z,9.90
2019-05-14T11:32:24.225Z,9.90
2019-05-14T11:33:31.117Z,9.90
2019-05-14T11:34:39.117Z,9.90
2019-05-14T11:35:46.228Z,9.90
2019-05-14T11:36:52.619Z,9.90
2019-05-14T11:37:59.527Z,9.90
2019-05-14T11:39:09.318Z,9.90
2019-05-14T11:40:18.940Z,9.90
2019-05-14T11:41:24.861Z,10.10
2019-05-14T11:42:31.719Z,10.20
2019-05-14T11:43:39.686Z,10.20
2019-05-14T11:44:48.675Z,10.10
2019-05-14T11:45:54.651Z,10.10
2019-05-14T11:47:02.666Z,10.10
2019-05-14T11:48:08.978Z,10.10
2019-05-14T11:49:15.904Z,10.00
2019-05-14T11:50:22.384Z,10.00
2019-05-14T11:51:57.856Z,10.00
2019-05-14T11:52:38.880Z,10.00
2019-05-14T11:53:46.029Z,10.00
2019-05-14T11:54:52.315Z,10.00
2019-05-14T11:55:59.167Z,9.90
2019-05-14T11:57:05.493Z,9.90
2019-05-14T11:58:12.351Z,9.80
2019-05-14T11:59:19.042Z,9.70
2019-05-14T12:00:29.388Z,9.70
2019-05-14T12:01:34.512Z,9.70
2019-05-14T12:02:41.457Z,9.70
2019-05-14T12:03:50.321Z,9.70
2019-05-14T12:04:56.354Z,9.80
2019-05-14T12:06:02.696Z,9.80
2019-05-14T12:07:09.796Z,9.90
2019-05-14T12:08:18.383Z,9.80
2019-05-14T12:09:24.817Z,9.90
2019-05-14T12:10:31.052Z,9.90
2019-05-14T12:11:38.487Z,9.80
2019-05-14T12:12:44.968Z,9.80
2019-05-14T12:13:51.713Z,9.80
2019-05-14T12:14:58.307Z,9.80
2019-05-14T12:16:05.241Z,9.90
2019-05-14T12:17:11.408Z,9.90
2019-05-14T12:18:18.693Z,9.90
2019-05-14T12:19:25.166Z,10.00
2019-05-14T12:20:32.106Z,10.00
2019-05-14T12:21:39.797Z,10.00
2019-05-14T12:22:48.790Z,10.00
2019-05-14T12:23:54.765Z,10.00
2019-05-14T12:25:01.585Z,9.90
2019-05-14T12:26:09.549Z,9.80
2019-05-14T12:27:18.989Z,9.80
2019-05-14T12:28:24.507Z,9.70
2019-05-14T12:29:31.383Z,9.60
2019-05-14T12:30:39.465Z,9.60
2019-05-14T12:31:50.365Z,9.60
2019-05-14T12:32:54.283Z,9.60
2019-05-14T12:34:01.143Z,9.50
2019-05-14T12:35:08.587Z,9.60
2019-05-14T12:36:19.002Z,9.50
2019-05-14T12:37:23.539Z,9.50
2019-05-14T12:38:30.365Z,9.60
2019-05-14T12:39:36.606Z,9.60
2019-05-14T12:40:43.371Z,9.70
2019-05-14T12:41:49.657Z,9.70
2019-05-14T12:42:59.015Z,9.70
2019-05-14T12:44:04.522Z,9.80
2019-05-14T12:45:12.743Z,9.90
2019-05-14T12:46:20.145Z,9.90
2019-05-14T12:47:29.084Z,10.00
2019-05-14T12:48:35.276Z,10.00
2019-05-14T12:49:42.217Z,10.00
2019-05-14T12:50:49.058Z,10.00
2019-05-14T12:51:58.811Z,10.00
2019-05-14T12:53:04.052Z,9.90
2019-05-14T12:54:10.974Z,9.90
2019-05-14T12:55:19.469Z,9.90
2019-05-14T12:56:29.116Z,9.80
2019-05-14T12:57:34.101Z,9.80
2019-05-14T12:58:45.493Z,9.80
2019-05-14T12:59:48.919Z,9.80
2019-05-14T13:00:55.915Z,9.80
2019-05-14T13:02:02.323Z,9.80
2019-05-14T13:03:09.330Z,9.80
2019-05-14T13:04:15.781Z,9.90
2019-05-14T13:05:22.624Z,9.90
2019-05-14T13:06:29.453Z,10.00
2019-05-14T13:07:36.165Z,9.90
2019-05-14T13:08:42.552Z,10.00
2019-05-14T13:09:49.554Z,10.00
2019-05-14T13:10:58.429Z,9.90
2019-05-14T13:12:04.614Z,10.00
2019-05-14T13:13:11.116Z,10.00
2019-05-14T13:14:18.913Z,9.90
2019-05-14T13:15:25.211Z,9.90
2019-05-14T13:16:32.161Z,9.80
2019-05-14T13:17:39.160Z,9.80
2019-05-14T13:18:45.769Z,9.90
2019-05-14T13:19:52.078Z,9.90
2019-05-14T13:21:00.229Z,9.80
2019-05-14T13:22:13.643Z,9.80
2019-05-14T13:23:15.502Z,9.70
2019-05-14T13:24:23.206Z,9.80
2019-05-14T13:25:31.087Z,9.70
2019-05-14T13:26:39.038Z,9.70
2019-05-14T13:27:46.358Z,9.80
2019-05-14T13:28:53.315Z,9.80
2019-05-14T13:30:00.142Z,9.80
2019-05-14T13:31:08.725Z,9.80
2019-05-14T13:32:15.148Z,9.80
2019-05-14T13:33:21.483Z,9.70
2019-05-14T13:34:28.991Z,9.70
2019-05-14T13:35:35.728Z,9.70
2019-05-14T13:36:44.995Z,9.70
2019-05-14T13:37:50.774Z,9.70
2019-05-14T13:38:59.618Z,9.60
2019-05-14T13:40:08.995Z,9.50
2019-05-14T13:41:28.493Z,9.50
2019-05-14T13:42:38.858Z,9.50
2019-05-14T13:43:44.913Z,9.50
2019-05-14T13:44:51.233Z,9.50
2019-05-14T13:45:58.818Z,9.50
2019-05-14T13:47:05.374Z,9.40
2019-05-14T13:48:12.295Z,9.40
2019-05-14T13:49:19.037Z,9.30
2019-05-14T13:50:29.218Z,9.30
2019-05-14T13:51:38.595Z,9.30
2019-05-14T13:52:58.217Z,9.30
2019-05-14T13:54:59.842Z,9.30
2019-05-14T13:56:08.797Z,9.30
2019-05-14T13:57:15.426Z,9.20
2019-05-14T13:58:21.928Z,9.20
2019-05-14T13:59:28.855Z,9.20
2019-05-14T14:00:35.442Z,9.20
2019-05-14T14:01:42.664Z,9.10
2019-05-14T14:02:49.134Z,9.20
2019-05-14T14:04:06.776Z,9.20
2019-05-14T14:05:05.303Z,9.20
2019-05-14T14:06:12.219Z,9.20
2019-05-14T14:07:19.134Z,9.20
2019-05-14T14:08:29.018Z,9.10
2019-05-14T14:09:33.667Z,9.10
2019-05-14T14:10:46.043Z,9.10
2019-05-14T14:11:48.792Z,9.00
2019-05-14T14:12:55.684Z,9.00
2019-05-14T14:14:02.532Z,9.00
2019-05-14T14:15:10.558Z,9.10
2019-05-14T14:16:19.533Z,9.10
2019-05-14T14:17:26.003Z,9.10
2019-05-14T14:18:32.355Z,9.10
2019-05-14T14:19:39.443Z,9.10
2019-05-14T14:20:45.660Z,9.10
2019-05-14T14:21:52.522Z,9.10
2019-05-14T14:23:09.145Z,9.10
2019-05-14T14:24:09.601Z,9.20
2019-05-14T14:25:17.719Z,9.10
2019-05-14T14:26:24.437Z,9.10
2019-05-14T14:27:30.984Z,9.10
2019-05-14T14:28:39.688Z,9.10
2019-05-14T14:29:45.780Z,9.10
2019-05-14T14:30:53.794Z,9.10
2019-05-14T14:32:00.165Z,9.10
2019-05-14T14:33:07.032Z,9.10
2019-05-14T14:34:13.345Z,9.10
2019-05-14T14:35:23.487Z,9.10
2019-05-14T14:36:29.870Z,9.10
2019-05-14T14:37:39.257Z,9.10
2019-05-14T14:38:44.566Z,9.10
2019-05-14T14:39:51.396Z,9.20
2019-05-14T14:40:58.223Z,9.20
2019-05-14T14:42:05.346Z,9.20
2019-05-14T14:43:25.136Z,9.20
2019-05-14T14:44:32.139Z,9.20
2019-05-14T14:45:44.739Z,9.20
2019-05-14T14:46:48.367Z,9.20
2019-05-14T14:47:54.988Z,9.10
2019-05-14T14:49:02.788Z,9.10
2019-05-14T14:50:10.568Z,9.00
2019-05-14T14:51:19.296Z,9.00
2019-05-14T14:52:25.394Z,9.10
2019-05-14T14:53:51.245Z,9.00
2019-05-14T14:54:40.278Z,9.00
2019-05-14T14:55:49.809Z,9.00
2019-05-14T14:56:56.024Z,9.00